ΕΜΥ, Εθνική Μετεωρολογική Υπηρεσία - Δελτία Καιρού, Προγνώσεις

ΑΕΡΟΝΑΥΤΙΛΙΑ

GREEK AIRPORTS CODES

LGKF 200850Z 00000KT 9999 SCT016 SCT020 12/09 Q1029=

EUROPEAN AIRPORTS CODES

LFPO 200900Z 17006KT CAVOK 07/00 Q1002 NOSIG=